sensor_id;sensor_type;location;lat;lon;timestamp;P1;durP1;ratioP1;P2;durP2;ratioP2
17997;SDS011;9124;48.144;17.098;2023-07-28T00:03:01;5.03;;;2.15;;
17997;SDS011;9124;48.144;17.098;2023-07-28T00:07:28;2.58;;;2.38;;
17997;SDS011;9124;48.144;17.098;2023-07-28T00:11:55;6.40;;;2.38;;
17997;SDS011;9124;48.144;17.098;2023-07-28T00:16:23;3.03;;;1.80;;
17997;SDS011;9124;48.144;17.098;2023-07-28T00:20:49;1.98;;;1.88;;
17997;SDS011;9124;48.144;17.098;2023-07-28T00:25:16;2.67;;;1.70;;
17997;SDS011;9124;48.144;17.098;2023-07-28T00:29:42;1.92;;;1.83;;
17997;SDS011;9124;48.144;17.098;2023-07-28T00:34:12;3.10;;;2.22;;
17997;SDS011;9124;48.144;17.098;2023-07-28T00:38:38;2.47;;;2.17;;
17997;SDS011;9124;48.144;17.098;2023-07-28T00:43:04;2.58;;;1.95;;
17997;SDS011;9124;48.144;17.098;2023-07-28T00:47:31;2.58;;;1.90;;
17997;SDS011;9124;48.144;17.098;2023-07-28T00:51:57;5.25;;;2.30;;
17997;SDS011;9124;48.144;17.098;2023-07-28T00:56:24;2.83;;;1.98;;
17997;SDS011;9124;48.144;17.098;2023-07-28T01:00:51;2.60;;;2.40;;
17997;SDS011;9124;48.144;17.098;2023-07-28T01:05:18;2.22;;;2.03;;
17997;SDS011;9124;48.144;17.098;2023-07-28T01:09:51;2.20;;;1.90;;
17997;SDS011;9124;48.144;17.098;2023-07-28T01:14:26;2.20;;;2.10;;
17997;SDS011;9124;48.144;17.098;2023-07-28T01:18:52;3.63;;;1.98;;
17997;SDS011;9124;48.144;17.098;2023-07-28T01:23:20;3.45;;;2.20;;
17997;SDS011;9124;48.144;17.098;2023-07-28T01:27:51;2.10;;;2.00;;
17997;SDS011;9124;48.144;17.098;2023-07-28T01:32:19;2.85;;;2.28;;
17997;SDS011;9124;48.144;17.098;2023-07-28T01:36:46;2.53;;;2.20;;
17997;SDS011;9124;48.144;17.098;2023-07-28T01:55:57;2.38;;;2.28;;
17997;SDS011;9124;48.144;17.098;2023-07-28T02:00:23;2.90;;;2.70;;
17997;SDS011;9124;48.144;17.098;2023-07-28T02:04:50;2.15;;;2.03;;
17997;SDS011;9124;48.144;17.098;2023-07-28T02:09:16;2.35;;;2.25;;
17997;SDS011;9124;48.144;17.098;2023-07-28T02:13:43;2.45;;;2.17;;
17997;SDS011;9124;48.144;17.098;2023-07-28T02:18:14;2.75;;;2.65;;
17997;SDS011;9124;48.144;17.098;2023-07-28T02:22:40;2.88;;;2.67;;
17997;SDS011;9124;48.144;17.098;2023-07-28T02:27:07;2.88;;;2.42;;
17997;SDS011;9124;48.144;17.098;2023-07-28T02:31:34;2.42;;;2.33;;
17997;SDS011;9124;48.144;17.098;2023-07-28T02:36:00;2.83;;;2.47;;
17997;SDS011;9124;48.144;17.098;2023-07-28T02:40:27;3.65;;;2.13;;
17997;SDS011;9124;48.144;17.098;2023-07-28T02:44:53;2.80;;;2.60;;
17997;SDS011;9124;48.144;17.098;2023-07-28T02:49:20;7.68;;;2.50;;
17997;SDS011;9124;48.144;17.098;2023-07-28T02:53:46;4.50;;;2.40;;
17997;SDS011;9124;48.144;17.098;2023-07-28T02:58:13;2.33;;;2.22;;
17997;SDS011;9124;48.144;17.098;2023-07-28T03:02:40;4.28;;;2.78;;
17997;SDS011;9124;48.144;17.098;2023-07-28T03:07:06;2.63;;;2.33;;
17997;SDS011;9124;48.144;17.098;2023-07-28T03:11:35;2.67;;;2.47;;
17997;SDS011;9124;48.144;17.098;2023-07-28T03:16:02;3.17;;;2.78;;
17997;SDS011;9124;48.144;17.098;2023-07-28T03:20:29;2.70;;;2.60;;
17997;SDS011;9124;48.144;17.098;2023-07-28T03:29:47;2.75;;;2.60;;
17997;SDS011;9124;48.144;17.098;2023-07-28T03:34:16;3.47;;;2.50;;
17997;SDS011;9124;48.144;17.098;2023-07-28T03:38:43;2.80;;;2.60;;
17997;SDS011;9124;48.144;17.098;2023-07-28T03:43:11;2.95;;;2.75;;
17997;SDS011;9124;48.144;17.098;2023-07-28T03:47:37;2.75;;;2.55;;
17997;SDS011;9124;48.144;17.098;2023-07-28T03:52:05;2.63;;;2.42;;
17997;SDS011;9124;48.144;17.098;2023-07-28T03:56:32;4.22;;;2.53;;
17997;SDS011;9124;48.144;17.098;2023-07-28T04:00:58;2.63;;;2.42;;
17997;SDS011;9124;48.144;17.098;2023-07-28T04:05:25;6.22;;;2.85;;
17997;SDS011;9124;48.144;17.098;2023-07-28T04:09:51;2.88;;;2.65;;
17997;SDS011;9124;48.144;17.098;2023-07-28T04:14:18;2.83;;;2.63;;
17997;SDS011;9124;48.144;17.098;2023-07-28T04:18:44;3.38;;;2.75;;
17997;SDS011;9124;48.144;17.098;2023-07-28T04:23:10;3.20;;;2.85;;
17997;SDS011;9124;48.144;17.098;2023-07-28T04:27:39;3.03;;;2.80;;
17997;SDS011;9124;48.144;17.098;2023-07-28T04:32:06;2.83;;;2.63;;
17997;SDS011;9124;48.144;17.098;2023-07-28T04:36:32;3.00;;;2.80;;
17997;SDS011;9124;48.144;17.098;2023-07-28T04:40:59;3.05;;;2.35;;
17997;SDS011;9124;48.144;17.098;2023-07-28T04:45:45;4.18;;;2.70;;
17997;SDS011;9124;48.144;17.098;2023-07-28T04:50:17;3.72;;;2.38;;
17997;SDS011;9124;48.144;17.098;2023-07-28T04:55:19;3.83;;;2.35;;
17997;SDS011;9124;48.144;17.098;2023-07-28T04:59:46;2.42;;;2.33;;
17997;SDS011;9124;48.144;17.098;2023-07-28T05:04:12;2.85;;;2.65;;
17997;SDS011;9124;48.144;17.098;2023-07-28T05:08:39;4.55;;;2.55;;
17997;SDS011;9124;48.144;17.098;2023-07-28T05:13:05;4.57;;;2.88;;
17997;SDS011;9124;48.144;17.098;2023-07-28T05:17:32;2.78;;;2.55;;
17997;SDS011;9124;48.144;17.098;2023-07-28T05:22:29;3.13;;;2.58;;
17997;SDS011;9124;48.144;17.098;2023-07-28T05:26:56;3.55;;;2.55;;
17997;SDS011;9124;48.144;17.098;2023-07-28T05:31:22;3.28;;;2.97;;
17997;SDS011;9124;48.144;17.098;2023-07-28T05:35:58;6.57;;;2.72;;
17997;SDS011;9124;48.144;17.098;2023-07-28T05:40:28;8.20;;;2.95;;
17997;SDS011;9124;48.144;17.098;2023-07-28T05:45:04;4.60;;;2.55;;
17997;SDS011;9124;48.144;17.098;2023-07-28T05:54:28;4.75;;;3.80;;
17997;SDS011;9124;48.144;17.098;2023-07-28T05:58:55;2.72;;;2.45;;
17997;SDS011;9124;48.144;17.098;2023-07-28T06:03:21;2.65;;;2.45;;
17997;SDS011;9124;48.144;17.098;2023-07-28T06:08:02;3.10;;;2.88;;
17997;SDS011;9124;48.144;17.098;2023-07-28T06:12:29;4.07;;;2.63;;
17997;SDS011;9124;48.144;17.098;2023-07-28T06:16:55;6.03;;;3.05;;
17997;SDS011;9124;48.144;17.098;2023-07-28T06:21:24;4.68;;;2.78;;
17997;SDS011;9124;48.144;17.098;2023-07-28T06:25:50;3.75;;;3.38;;
17997;SDS011;9124;48.144;17.098;2023-07-28T06:30:17;11.50;;;3.00;;
17997;SDS011;9124;48.144;17.098;2023-07-28T06:34:44;4.70;;;2.80;;
17997;SDS011;9124;48.144;17.098;2023-07-28T06:39:10;3.30;;;2.40;;
17997;SDS011;9124;48.144;17.098;2023-07-28T06:43:37;4.78;;;2.88;;
17997;SDS011;9124;48.144;17.098;2023-07-28T06:48:06;5.55;;;2.70;;
17997;SDS011;9124;48.144;17.098;2023-07-28T06:52:32;4.82;;;2.72;;
17997;SDS011;9124;48.144;17.098;2023-07-28T06:56:59;3.10;;;2.80;;
17997;SDS011;9124;48.144;17.098;2023-07-28T07:01:25;5.35;;;3.00;;
17997;SDS011;9124;48.144;17.098;2023-07-28T07:05:52;4.03;;;2.42;;
17997;SDS011;9124;48.144;17.098;2023-07-28T07:10:18;2.88;;;2.40;;
17997;SDS011;9124;48.144;17.098;2023-07-28T07:14:46;5.18;;;2.67;;
17997;SDS011;9124;48.144;17.098;2023-07-28T07:19:13;4.68;;;2.60;;
17997;SDS011;9124;48.144;17.098;2023-07-28T07:23:41;4.22;;;2.38;;
17997;SDS011;9124;48.144;17.098;2023-07-28T07:28:24;3.22;;;2.80;;
17997;SDS011;9124;48.144;17.098;2023-07-28T07:32:51;5.97;;;2.83;;
17997;SDS011;9124;48.144;17.098;2023-07-28T07:37:17;13.35;;;2.38;;
17997;SDS011;9124;48.144;17.098;2023-07-28T07:41:43;3.05;;;2.60;;
17997;SDS011;9124;48.144;17.098;2023-07-28T07:46:10;3.85;;;2.47;;
17997;SDS011;9124;48.144;17.098;2023-07-28T08:00:20;3.58;;;2.58;;
17997;SDS011;9124;48.144;17.098;2023-07-28T08:04:47;4.57;;;2.03;;
17997;SDS011;9124;48.144;17.098;2023-07-28T08:09:13;3.10;;;2.40;;
17997;SDS011;9124;48.144;17.098;2023-07-28T08:13:39;4.72;;;2.45;;
17997;SDS011;9124;48.144;17.098;2023-07-28T08:18:05;2.85;;;1.85;;
17997;SDS011;9124;48.144;17.098;2023-07-28T08:22:32;2.70;;;2.50;;
17997;SDS011;9124;48.144;17.098;2023-07-28T08:26:58;3.22;;;2.60;;
17997;SDS011;9124;48.144;17.098;2023-07-28T08:31:25;2.47;;;2.28;;
17997;SDS011;9124;48.144;17.098;2023-07-28T08:35:51;5.75;;;2.67;;
17997;SDS011;9124;48.144;17.098;2023-07-28T08:40:18;2.13;;;2.00;;
17997;SDS011;9124;48.144;17.098;2023-07-28T08:44:44;3.28;;;2.22;;
17997;SDS011;9124;48.144;17.098;2023-07-28T08:49:13;3.72;;;2.22;;
17997;SDS011;9124;48.144;17.098;2023-07-28T08:53:39;2.28;;;2.08;;
17997;SDS011;9124;48.144;17.098;2023-07-28T08:58:18;4.18;;;2.17;;
17997;SDS011;9124;48.144;17.098;2023-07-28T09:02:48;2.30;;;2.20;;
17997;SDS011;9124;48.144;17.098;2023-07-28T09:07:16;2.47;;;1.80;;
17997;SDS011;9124;48.144;17.098;2023-07-28T09:11:49;2.53;;;2.30;;
17997;SDS011;9124;48.144;17.098;2023-07-28T09:16:18;3.38;;;1.98;;
17997;SDS011;9124;48.144;17.098;2023-07-28T09:20:46;2.08;;;1.90;;
17997;SDS011;9124;48.144;17.098;2023-07-28T09:25:13;2.05;;;1.95;;
17997;SDS011;9124;48.144;17.098;2023-07-28T09:29:41;2.58;;;2.38;;
17997;SDS011;9124;48.144;17.098;2023-07-28T09:34:08;2.38;;;2.28;;
17997;SDS011;9124;48.144;17.098;2023-07-28T09:38:38;4.35;;;2.28;;
17997;SDS011;9124;48.144;17.098;2023-07-28T09:43:07;3.55;;;2.25;;
17997;SDS011;9124;48.144;17.098;2023-07-28T09:47:34;2.40;;;2.20;;
17997;SDS011;9124;48.144;17.098;2023-07-28T09:52:03;2.10;;;2.00;;
17997;SDS011;9124;48.144;17.098;2023-07-28T09:56:31;6.55;;;2.20;;
17997;SDS011;9124;48.144;17.098;2023-07-28T10:00:59;3.67;;;2.20;;
17997;SDS011;9124;48.144;17.098;2023-07-28T10:05:26;2.28;;;2.10;;
17997;SDS011;9124;48.144;17.098;2023-07-28T10:09:53;2.15;;;1.95;;
17997;SDS011;9124;48.144;17.098;2023-07-28T10:14:29;2.42;;;2.25;;
17997;SDS011;9124;48.144;17.098;2023-07-28T10:19:00;5.28;;;2.03;;
17997;SDS011;9124;48.144;17.098;2023-07-28T10:23:26;3.15;;;2.08;;
17997;SDS011;9124;48.144;17.098;2023-07-28T10:27:53;2.10;;;2.00;;
17997;SDS011;9124;48.144;17.098;2023-07-28T10:32:26;2.30;;;2.17;;
17997;SDS011;9124;48.144;17.098;2023-07-28T10:36:59;2.08;;;1.98;;
17997;SDS011;9124;48.144;17.098;2023-07-28T10:41:26;2.60;;;2.40;;
17997;SDS011;9124;48.144;17.098;2023-07-28T10:45:52;3.28;;;2.17;;
17997;SDS011;9124;48.144;17.098;2023-07-28T10:50:19;5.00;;;2.33;;
17997;SDS011;9124;48.144;17.098;2023-07-28T10:54:46;2.95;;;2.38;;
17997;SDS011;9124;48.144;17.098;2023-07-28T10:59:12;2.35;;;2.25;;
17997;SDS011;9124;48.144;17.098;2023-07-28T11:03:40;2.47;;;2.30;;
17997;SDS011;9124;48.144;17.098;2023-07-28T11:08:07;2.72;;;2.60;;
17997;SDS011;9124;48.144;17.098;2023-07-28T11:32:17;4.88;;;2.80;;
17997;SDS011;9124;48.144;17.098;2023-07-28T11:36:43;2.80;;;2.60;;
17997;SDS011;9124;48.144;17.098;2023-07-28T11:41:10;3.60;;;2.47;;
17997;SDS011;9124;48.144;17.098;2023-07-28T11:45:36;2.60;;;2.50;;
17997;SDS011;9124;48.144;17.098;2023-07-28T11:50:03;4.40;;;2.25;;
17997;SDS011;9124;48.144;17.098;2023-07-28T11:54:30;4.35;;;2.30;;
17997;SDS011;9124;48.144;17.098;2023-07-28T11:58:57;2.55;;;2.35;;
17997;SDS011;9124;48.144;17.098;2023-07-28T12:03:29;2.45;;;2.00;;
17997;SDS011;9124;48.144;17.098;2023-07-28T12:07:56;2.92;;;2.72;;
17997;SDS011;9124;48.144;17.098;2023-07-28T12:12:22;5.60;;;2.50;;
17997;SDS011;9124;48.144;17.098;2023-07-28T12:16:52;2.58;;;2.38;;
17997;SDS011;9124;48.144;17.098;2023-07-28T12:21:18;2.45;;;2.35;;
17997;SDS011;9124;48.144;17.098;2023-07-28T12:25:44;4.45;;;2.60;;
17997;SDS011;9124;48.144;17.098;2023-07-28T12:30:11;5.53;;;2.55;;
17997;SDS011;9124;48.144;17.098;2023-07-28T12:34:37;4.15;;;2.75;;
17997;SDS011;9124;48.144;17.098;2023-07-28T12:39:03;2.13;;;2.03;;
17997;SDS011;9124;48.144;17.098;2023-07-28T12:43:31;2.35;;;2.15;;
17997;SDS011;9124;48.144;17.098;2023-07-28T12:47:58;2.50;;;2.30;;
17997;SDS011;9124;48.144;17.098;2023-07-28T12:52:25;4.00;;;2.33;;
17997;SDS011;9124;48.144;17.098;2023-07-28T12:56:53;3.70;;;2.38;;
17997;SDS011;9124;48.144;17.098;2023-07-28T13:12:31;3.67;;;2.60;;
17997;SDS011;9124;48.144;17.098;2023-07-28T13:16:59;2.60;;;2.50;;
17997;SDS011;9124;48.144;17.098;2023-07-28T13:21:25;3.65;;;2.55;;
17997;SDS011;9124;48.144;17.098;2023-07-28T13:25:52;3.28;;;3.08;;
17997;SDS011;9124;48.144;17.098;2023-07-28T13:30:18;4.30;;;2.78;;
17997;SDS011;9124;48.144;17.098;2023-07-28T13:34:45;2.42;;;2.33;;
17997;SDS011;9124;48.144;17.098;2023-07-28T13:39:11;3.03;;;2.80;;
17997;SDS011;9124;48.144;17.098;2023-07-28T13:43:38;3.08;;;2.70;;
17997;SDS011;9124;48.144;17.098;2023-07-28T13:48:06;2.60;;;2.40;;
17997;SDS011;9124;48.144;17.098;2023-07-28T13:52:32;3.20;;;2.47;;
17997;SDS011;9124;48.144;17.098;2023-07-28T13:56:59;4.10;;;2.50;;
17997;SDS011;9124;48.144;17.098;2023-07-28T14:01:25;4.68;;;2.90;;
17997;SDS011;9124;48.144;17.098;2023-07-28T14:05:52;3.22;;;2.85;;
17997;SDS011;9124;48.144;17.098;2023-07-28T14:10:18;2.78;;;2.58;;
17997;SDS011;9124;48.144;17.098;2023-07-28T14:14:45;2.78;;;2.58;;
17997;SDS011;9124;48.144;17.098;2023-07-28T14:19:11;3.88;;;2.63;;
17997;SDS011;9124;48.144;17.098;2023-07-28T14:23:38;3.95;;;2.70;;
17997;SDS011;9124;48.144;17.098;2023-07-28T14:28:04;3.22;;;3.03;;
17997;SDS011;9124;48.144;17.098;2023-07-28T14:32:31;7.82;;;2.83;;
17997;SDS011;9124;48.144;17.098;2023-07-28T14:36:57;5.15;;;3.20;;
17997;SDS011;9124;48.144;17.098;2023-07-28T14:41:26;2.65;;;2.45;;
17997;SDS011;9124;48.144;17.098;2023-07-28T14:45:52;3.40;;;3.10;;
17997;SDS011;9124;48.144;17.098;2023-07-28T14:50:20;4.65;;;3.05;;
17997;SDS011;9124;48.144;17.098;2023-07-28T14:54:47;4.38;;;2.55;;
17997;SDS011;9124;48.144;17.098;2023-07-28T14:59:14;5.20;;;2.75;;
17997;SDS011;9124;48.144;17.098;2023-07-28T15:03:41;2.50;;;2.40;;
17997;SDS011;9124;48.144;17.098;2023-07-28T15:08:08;3.53;;;2.83;;
17997;SDS011;9124;48.144;17.098;2023-07-28T15:12:34;2.83;;;2.55;;
17997;SDS011;9124;48.144;17.098;2023-07-28T15:17:03;4.57;;;2.15;;
17997;SDS011;9124;48.144;17.098;2023-07-28T15:21:30;3.47;;;2.85;;
17997;SDS011;9124;48.144;17.098;2023-07-28T15:30:47;2.83;;;2.65;;
17997;SDS011;9124;48.144;17.098;2023-07-28T15:35:18;4.90;;;2.55;;
17997;SDS011;9124;48.144;17.098;2023-07-28T15:39:44;3.45;;;2.83;;
17997;SDS011;9124;48.144;17.098;2023-07-28T15:44:11;2.92;;;2.72;;
17997;SDS011;9124;48.144;17.098;2023-07-28T15:48:37;2.88;;;2.67;;
17997;SDS011;9124;48.144;17.098;2023-07-28T15:53:04;3.58;;;2.60;;
17997;SDS011;9124;48.144;17.098;2023-07-28T15:57:30;6.03;;;2.97;;
17997;SDS011;9124;48.144;17.098;2023-07-28T16:01:56;2.88;;;2.67;;
17997;SDS011;9124;48.144;17.098;2023-07-28T16:06:23;5.53;;;2.58;;
17997;SDS011;9124;48.144;17.098;2023-07-28T16:10:49;4.50;;;2.88;;
17997;SDS011;9124;48.144;17.098;2023-07-28T16:15:16;8.45;;;2.95;;
17997;SDS011;9124;48.144;17.098;2023-07-28T16:19:42;3.05;;;2.85;;
17997;SDS011;9124;48.144;17.098;2023-07-28T16:24:09;4.85;;;3.30;;
17997;SDS011;9124;48.144;17.098;2023-07-28T16:28:36;4.07;;;2.67;;
17997;SDS011;9124;48.144;17.098;2023-07-28T16:33:03;4.18;;;3.20;;
17997;SDS011;9124;48.144;17.098;2023-07-28T16:37:29;3.13;;;2.92;;
17997;SDS011;9124;48.144;17.098;2023-07-28T16:41:55;3.20;;;2.60;;
17997;SDS011;9124;48.144;17.098;2023-07-28T16:46:22;5.78;;;2.70;;
17997;SDS011;9124;48.144;17.098;2023-07-28T16:50:48;4.40;;;2.72;;
17997;SDS011;9124;48.144;17.098;2023-07-28T16:55:15;6.05;;;2.85;;
17997;SDS011;9124;48.144;17.098;2023-07-28T16:59:41;3.13;;;2.92;;
17997;SDS011;9124;48.144;17.098;2023-07-28T17:04:08;3.20;;;3.00;;
17997;SDS011;9124;48.144;17.098;2023-07-28T17:08:34;2.75;;;2.55;;
17997;SDS011;9124;48.144;17.098;2023-07-28T17:13:02;2.90;;;2.70;;
17997;SDS011;9124;48.144;17.098;2023-07-28T17:17:30;3.40;;;3.10;;
17997;SDS011;9124;48.144;17.098;2023-07-28T17:21:57;4.78;;;2.78;;
17997;SDS011;9124;48.144;17.098;2023-07-28T17:26:23;4.57;;;2.80;;
17997;SDS011;9124;48.144;17.098;2023-07-28T17:30:50;4.57;;;2.72;;
17997;SDS011;9124;48.144;17.098;2023-07-28T17:35:26;4.95;;;2.58;;
17997;SDS011;9124;48.144;17.098;2023-07-28T17:39:52;2.80;;;2.60;;
17997;SDS011;9124;48.144;17.098;2023-07-28T17:44:18;4.60;;;2.58;;
17997;SDS011;9124;48.144;17.098;2023-07-28T17:53:37;3.17;;;2.88;;
17997;SDS011;9124;48.144;17.098;2023-07-28T17:58:03;4.15;;;3.15;;
17997;SDS011;9124;48.144;17.098;2023-07-28T18:02:29;3.17;;;2.97;;
17997;SDS011;9124;48.144;17.098;2023-07-28T18:06:56;3.20;;;2.90;;
17997;SDS011;9124;48.144;17.098;2023-07-28T18:11:22;3.20;;;2.90;;
17997;SDS011;9124;48.144;17.098;2023-07-28T18:15:48;6.13;;;2.88;;
17997;SDS011;9124;48.144;17.098;2023-07-28T18:20:15;2.92;;;2.83;;
17997;SDS011;9124;48.144;17.098;2023-07-28T18:24:41;3.47;;;2.95;;
17997;SDS011;9124;48.144;17.098;2023-07-28T18:29:07;6.35;;;3.22;;
17997;SDS011;9124;48.144;17.098;2023-07-28T18:33:34;4.57;;;2.85;;
17997;SDS011;9124;48.144;17.098;2023-07-28T18:38:00;3.45;;;3.15;;
17997;SDS011;9124;48.144;17.098;2023-07-28T18:42:27;3.53;;;3.30;;
17997;SDS011;9124;48.144;17.098;2023-07-28T18:46:54;5.00;;;3.20;;
17997;SDS011;9124;48.144;17.098;2023-07-28T18:51:20;3.35;;;3.15;;
17997;SDS011;9124;48.144;17.098;2023-07-28T18:55:46;2.97;;;2.78;;
17997;SDS011;9124;48.144;17.098;2023-07-28T19:00:13;6.35;;;3.17;;
17997;SDS011;9124;48.144;17.098;2023-07-28T19:04:39;4.00;;;3.70;;
17997;SDS011;9124;48.144;17.098;2023-07-28T19:09:08;7.25;;;3.28;;
17997;SDS011;9124;48.144;17.098;2023-07-28T19:13:34;3.28;;;3.08;;
17997;SDS011;9124;48.144;17.098;2023-07-28T19:18:01;3.38;;;3.15;;
17997;SDS011;9124;48.144;17.098;2023-07-28T19:22:27;3.35;;;3.15;;
17997;SDS011;9124;48.144;17.098;2023-07-28T19:26:54;3.63;;;3.35;;
17997;SDS011;9124;48.144;17.098;2023-07-28T19:31:20;3.25;;;3.05;;
17997;SDS011;9124;48.144;17.098;2023-07-28T19:35:46;4.40;;;3.25;;
17997;SDS011;9124;48.144;17.098;2023-07-28T19:40:13;3.63;;;3.33;;
17997;SDS011;9124;48.144;17.098;2023-07-28T19:44:41;3.60;;;3.40;;
17997;SDS011;9124;48.144;17.098;2023-07-28T19:49:07;4.95;;;3.63;;
17997;SDS011;9124;48.144;17.098;2023-07-28T19:53:37;4.10;;;3.70;;
17997;SDS011;9124;48.144;17.098;2023-07-28T19:58:03;3.60;;;3.30;;
17997;SDS011;9124;48.144;17.098;2023-07-28T20:02:32;3.65;;;3.38;;
17997;SDS011;9124;48.144;17.098;2023-07-28T20:06:58;3.58;;;3.30;;
17997;SDS011;9124;48.144;17.098;2023-07-28T20:11:24;3.58;;;3.33;;
17997;SDS011;9124;48.144;17.098;2023-07-28T20:15:51;4.63;;;3.78;;
17997;SDS011;9124;48.144;17.098;2023-07-28T20:20:19;5.07;;;3.63;;
17997;SDS011;9124;48.144;17.098;2023-07-28T20:24:45;4.45;;;3.70;;
17997;SDS011;9124;48.144;17.098;2023-07-28T20:29:16;3.63;;;3.33;;
17997;SDS011;9124;48.144;17.098;2023-07-28T20:33:44;4.18;;;3.63;;
17997;SDS011;9124;48.144;17.098;2023-07-28T20:38:10;3.58;;;3.38;;
17997;SDS011;9124;48.144;17.098;2023-07-28T20:42:36;3.70;;;3.47;;
17997;SDS011;9124;48.144;17.098;2023-07-28T20:47:03;5.47;;;3.72;;
17997;SDS011;9124;48.144;17.098;2023-07-28T20:51:29;4.05;;;3.70;;
17997;SDS011;9124;48.144;17.098;2023-07-28T20:55:56;4.90;;;3.40;;
17997;SDS011;9124;48.144;17.098;2023-07-28T21:00:23;3.53;;;3.33;;
17997;SDS011;9124;48.144;17.098;2023-07-28T21:04:49;3.70;;;3.47;;
17997;SDS011;9124;48.144;17.098;2023-07-28T21:09:15;3.28;;;3.08;;
17997;SDS011;9124;48.144;17.098;2023-07-28T21:13:42;4.47;;;3.42;;
17997;SDS011;9124;48.144;17.098;2023-07-28T21:18:08;5.00;;;3.70;;
17997;SDS011;9124;48.144;17.098;2023-07-28T21:22:35;5.90;;;3.70;;
17997;SDS011;9124;48.144;17.098;2023-07-28T21:27:01;3.90;;;3.70;;
17997;SDS011;9124;48.144;17.098;2023-07-28T21:31:28;3.35;;;3.15;;
17997;SDS011;9124;48.144;17.098;2023-07-28T21:35:54;5.65;;;3.70;;
17997;SDS011;9124;48.144;17.098;2023-07-28T21:40:39;5.72;;;3.45;;
17997;SDS011;9124;48.144;17.098;2023-07-28T21:50:00;4.20;;;3.42;;
17997;SDS011;9124;48.144;17.098;2023-07-28T21:54:26;4.70;;;3.63;;
17997;SDS011;9124;48.144;17.098;2023-07-28T21:58:53;3.50;;;3.17;;
17997;SDS011;9124;48.144;17.098;2023-07-28T22:03:20;3.90;;;3.60;;
17997;SDS011;9124;48.144;17.098;2023-07-28T22:07:46;3.83;;;3.53;;
17997;SDS011;9124;48.144;17.098;2023-07-28T22:12:17;3.72;;;3.42;;
17997;SDS011;9124;48.144;17.098;2023-07-28T22:16:43;3.35;;;3.15;;
17997;SDS011;9124;48.144;17.098;2023-07-28T22:27:30;3.03;;;2.90;;
17997;SDS011;9124;48.144;17.098;2023-07-28T22:31:56;3.75;;;3.42;;
17997;SDS011;9124;48.144;17.098;2023-07-28T22:36:22;3.53;;;3.33;;
17997;SDS011;9124;48.144;17.098;2023-07-28T22:40:49;3.50;;;2.80;;
17997;SDS011;9124;48.144;17.098;2023-07-28T22:45:19;4.18;;;3.88;;
17997;SDS011;9124;48.144;17.098;2023-07-28T22:49:45;4.05;;;2.95;;
17997;SDS011;9124;48.144;17.098;2023-07-28T22:54:11;3.50;;;3.30;;
17997;SDS011;9124;48.144;17.098;2023-07-28T22:58:37;4.00;;;3.70;;
17997;SDS011;9124;48.144;17.098;2023-07-28T23:03:04;6.57;;;3.45;;
17997;SDS011;9124;48.144;17.098;2023-07-28T23:07:30;3.03;;;2.83;;
17997;SDS011;9124;48.144;17.098;2023-07-28T23:11:57;4.40;;;3.28;;
17997;SDS011;9124;48.144;17.098;2023-07-28T23:16:23;4.00;;;3.38;;
17997;SDS011;9124;48.144;17.098;2023-07-28T23:20:49;3.95;;;3.38;;
17997;SDS011;9124;48.144;17.098;2023-07-28T23:25:16;3.40;;;3.20;;
17997;SDS011;9124;48.144;17.098;2023-07-28T23:29:42;5.45;;;3.40;;
17997;SDS011;9124;48.144;17.098;2023-07-28T23:34:08;3.53;;;3.33;;
17997;SDS011;9124;48.144;17.098;2023-07-28T23:38:35;4.88;;;3.10;;
17997;SDS011;9124;48.144;17.098;2023-07-28T23:43:03;3.33;;;2.80;;
17997;SDS011;9124;48.144;17.098;2023-07-28T23:47:29;3.58;;;3.38;;
17997;SDS011;9124;48.144;17.098;2023-07-28T23:51:56;3.60;;;3.00;;
17997;SDS011;9124;48.144;17.098;2023-07-28T23:56:23;3.03;;;2.83;;
